Time;durP1;ratioP1;P1;durP2;ratioP2;P2;SDS_P1;SDS_P2;PMS_P1;PMS_P2;Temp;Humidity;BMP_temperature;BMP_pressure;BME280_temperature;BME280_humidity;BME280_pressure;Samples;Min_cycle;Max_cycle;Signal;HPM_P1;HPM_P2
2021/07/01 00:00:30;;;;;;;19.37;6.13;;;;;;;;;;5025559;28;20471;-69
2021/07/01 00:02:55;;;;;;;17.30;5.70;;;;;;;;;;5032992;28;20028;-69
2021/07/01 00:05:21;;;;;;;17.03;6.60;;;;;;;;;;5027727;28;20049;-69
2021/07/01 00:07:47;;;;;;;23.70;7.57;;;;;;;;;;5030009;28;20386;-69
2021/07/01 00:10:20;;;;;;;34.27;6.70;;;;;;;;;;5032241;28;20021;-69
2021/07/01 00:12:45;;;;;;;18.80;6.73;;;;;;;;;;5030514;28;20478;-69
2021/07/01 00:15:13;;;;;;;19.70;6.07;;;;;;;;;;5022448;28;20109;-69
2021/07/01 00:17:39;;;;;;;20.53;6.50;;;;;;;;;;5031352;28;20030;-69
2021/07/01 00:20:05;;;;;;;19.10;6.87;;;;;;;;;;5033127;28;20017;-69
2021/07/01 00:22:30;;;;;;;20.77;6.13;;;;;;;;;;5028694;28;20104;-70
2021/07/01 00:24:55;;;;;;;18.93;5.57;;;;;;;;;;5028131;28;20097;-69
2021/07/01 00:27:21;;;;;;;18.00;6.43;;;;;;;;;;5030180;28;20088;-69
2021/07/01 00:29:46;;;;;;;24.13;7.50;;;;;;;;;;5022562;28;20022;-70
2021/07/01 00:32:11;;;;;;;20.20;6.40;;;;;;;;;;5030644;28;20124;-69
2021/07/01 00:34:37;;;;;;;21.57;6.83;;;;;;;;;;5030617;28;20025;-69
2021/07/01 00:37:02;;;;;;;19.73;6.23;;;;;;;;;;5028965;28;20029;-69
2021/07/01 00:39:27;;;;;;;18.30;6.50;;;;;;;;;;5030983;28;20021;-69
2021/07/01 00:41:53;;;;;;;23.13;6.43;;;;;;;;;;5027549;28;20075;-69
2021/07/01 00:44:18;;;;;;;22.80;6.83;;;;;;;;;;5023077;28;20044;-69
2021/07/01 00:46:43;;;;;;;17.40;6.00;;;;;;;;;;5028876;28;20457;-69
2021/07/01 00:49:09;;;;;;;17.67;6.10;;;;;;;;;;5026369;28;20125;-69
2021/07/01 00:51:34;;;;;;;19.03;6.13;;;;;;;;;;5028701;28;20382;-69
2021/07/01 00:54:00;;;;;;;17.10;6.13;;;;;;;;;;5031658;28;20490;-70
2021/07/01 00:56:25;;;;;;;22.40;5.97;;;;;;;;;;5025714;28;20025;-69
2021/07/01 00:58:52;;;;;;;15.93;5.60;;;;;;;;;;5029165;28;20100;-69
2021/07/01 01:01:17;;;;;;;17.37;5.93;;;;;;;;;;5031700;28;20045;-71
2021/07/01 01:03:43;;;;;;;15.17;5.10;;;;;;;;;;5033607;22;20089;-70
2021/07/01 01:06:08;;;;;;;16.63;5.57;;;;;;;;;;5011971;28;20034;-70
2021/07/01 01:08:34;;;;;;;26.53;6.70;;;;;;;;;;5009457;28;20034;-70
2021/07/01 01:10:59;;;;;;;17.13;7.07;;;;;;;;;;5012647;28;20033;-70
2021/07/01 01:13:25;;;;;;;16.80;5.80;;;;;;;;;;5002984;28;20395;-70
2021/07/01 01:15:57;;;;;;;14.20;5.93;;;;;;;;;;4997377;28;20025;-69
2021/07/01 01:18:23;;;;;;;15.50;5.73;;;;;;;;;;4983621;28;20026;-70
2021/07/01 01:20:49;;;;;;;28.03;6.90;;;;;;;;;;5016625;28;20053;-70
2021/07/01 01:23:14;;;;;;;19.63;6.60;;;;;;;;;;5011528;28;20018;-70
2021/07/01 01:25:41;;;;;;;18.83;6.30;;;;;;;;;;5016867;28;20048;-73
2021/07/01 01:28:06;;;;;;;24.53;6.50;;;;;;;;;;5014395;28;20113;-73
2021/07/01 01:30:32;;;;;;;22.73;7.13;;;;;;;;;;5012070;28;20742;-73
2021/07/01 01:32:57;;;;;;;19.07;5.80;;;;;;;;;;5007524;28;20049;-73
2021/07/01 01:35:22;;;;;;;15.70;6.17;;;;;;;;;;5018436;28;20026;-73
2021/07/01 01:37:51;;;;;;;22.77;6.20;;;;;;;;;;5018892;28;20100;-73
2021/07/01 01:40:16;;;;;;;19.40;6.47;;;;;;;;;;5017795;28;20025;-73
2021/07/01 01:42:42;;;;;;;16.03;5.93;;;;;;;;;;5018180;28;20101;-73
2021/07/01 01:45:07;;;;;;;14.97;5.90;;;;;;;;;;5017782;28;20030;-72
2021/07/01 01:47:36;;;;;;;21.73;5.93;;;;;;;;;;5018395;28;20484;-73
2021/07/01 01:50:01;;;;;;;15.07;6.17;;;;;;;;;;5013658;28;20041;-73
2021/07/01 01:52:27;;;;;;;16.57;5.37;;;;;;;;;;5016957;28;20029;-73
2021/07/01 01:54:53;;;;;;;24.93;6.83;;;;;;;;;;5015358;28;20048;-73
2021/07/01 01:57:18;;;;;;;21.47;6.60;;;;;;;;;;5011375;28;20025;-73
2021/07/01 01:59:43;;;;;;;21.43;6.20;;;;;;;;;;5011903;28;20101;-72
2021/07/01 02:02:09;;;;;;;21.60;6.77;;;;;;;;;;5014604;28;20606;-73
2021/07/01 02:04:34;;;;;;;18.90;5.57;;;;;;;;;;5018832;28;20033;-73
2021/07/01 02:06:59;;;;;;;15.77;5.43;;;;;;;;;;5018194;28;20056;-73
2021/07/01 02:09:25;;;;;;;15.40;5.90;;;;;;;;;;5015350;28;20026;-72
2021/07/01 02:11:50;;;;;;;24.47;6.50;;;;;;;;;;5015028;28;20026;-72
2021/07/01 02:14:16;;;;;;;18.57;6.00;;;;;;;;;;5018437;28;20083;-72
2021/07/01 02:16:42;;;;;;;18.77;6.73;;;;;;;;;;5018591;28;20372;-72
2021/07/01 02:19:07;;;;;;;19.73;6.23;;;;;;;;;;5011147;28;20026;-72
2021/07/01 02:21:32;;;;;;;17.50;6.30;;;;;;;;;;5010783;28;20061;-73
2021/07/01 02:23:58;;;;;;;15.07;6.03;;;;;;;;;;5014905;28;20371;-72
2021/07/01 02:26:23;;;;;;;23.67;7.13;;;;;;;;;;5016792;28;20033;-72
2021/07/01 02:28:48;;;;;;;26.97;7.33;;;;;;;;;;5015660;28;20037;-72
2021/07/01 02:31:14;;;;;;;19.40;6.87;;;;;;;;;;5014603;28;20026;-72
2021/07/01 02:33:39;;;;;;;16.63;6.47;;;;;;;;;;5014943;28;20030;-72
2021/07/01 02:36:05;;;;;;;24.13;7.57;;;;;;;;;;5014012;28;20017;-72
2021/07/01 02:38:30;;;;;;;19.20;6.70;;;;;;;;;;5014737;28;20057;-72
2021/07/01 02:40:55;;;;;;;21.67;6.53;;;;;;;;;;5013784;28;20025;-72
2021/07/01 02:43:21;;;;;;;22.80;6.57;;;;;;;;;;5013179;28;20022;-72
2021/07/01 02:45:46;;;;;;;21.37;7.27;;;;;;;;;;5015364;28;20032;-72
2021/07/01 02:48:11;;;;;;;19.97;6.80;;;;;;;;;;5008356;28;20340;-72
2021/07/01 02:50:36;;;;;;;21.77;5.83;;;;;;;;;;5015315;28;20037;-72
2021/07/01 02:53:02;;;;;;;18.43;6.47;;;;;;;;;;5010053;28;20026;-72
2021/07/01 02:55:27;;;;;;;23.37;6.93;;;;;;;;;;5019172;28;20056;-73
2021/07/01 02:57:52;;;;;;;21.13;7.20;;;;;;;;;;5020651;28;20196;-70
2021/07/01 03:00:18;;;;;;;21.40;7.07;;;;;;;;;;5014575;28;20037;-70
2021/07/01 03:02:43;;;;;;;20.37;6.67;;;;;;;;;;5008168;28;20045;-69
2021/07/01 03:05:09;;;;;;;16.30;6.27;;;;;;;;;;5004187;28;20473;-70
2021/07/01 03:07:34;;;;;;;18.57;6.40;;;;;;;;;;5009886;28;20100;-69
2021/07/01 03:10:00;;;;;;;21.47;6.83;;;;;;;;;;5014384;28;20025;-70
2021/07/01 03:12:26;;;;;;;21.00;7.10;;;;;;;;;;5013665;28;20026;-70
2021/07/01 03:14:51;;;;;;;23.30;7.53;;;;;;;;;;5010950;28;20111;-70
2021/07/01 03:17:17;;;;;;;24.60;6.87;;;;;;;;;;5014185;28;20028;-70
2021/07/01 03:19:42;;;;;;;17.80;6.37;;;;;;;;;;5014393;28;20018;-70
2021/07/01 03:22:08;;;;;;;24.13;6.97;;;;;;;;;;5014459;28;20366;-70
2021/07/01 03:24:34;;;;;;;21.97;6.37;;;;;;;;;;5014337;28;20060;-70
2021/07/01 03:27:00;;;;;;;17.63;6.90;;;;;;;;;;5006713;28;20038;-70
2021/07/01 03:29:26;;;;;;;20.20;6.97;;;;;;;;;;5012836;28;20410;-70
2021/07/01 03:31:52;;;;;;;29.23;6.90;;;;;;;;;;5014115;28;20045;-70
2021/07/01 03:34:17;;;;;;;19.87;6.93;;;;;;;;;;5014316;28;20068;-70
2021/07/01 03:36:42;;;;;;;25.43;6.93;;;;;;;;;;5007217;28;20467;-70
2021/07/01 03:39:08;;;;;;;17.73;6.63;;;;;;;;;;5011920;28;20040;-70
2021/07/01 03:41:33;;;;;;;25.43;7.07;;;;;;;;;;5011316;28;20033;-71
2021/07/01 03:43:58;;;;;;;19.53;7.20;;;;;;;;;;5010057;28;20079;-70
2021/07/01 03:46:24;;;;;;;24.40;6.57;;;;;;;;;;5013965;28;20030;-70
2021/07/01 03:48:49;;;;;;;15.43;5.60;;;;;;;;;;5013955;28;20036;-70
2021/07/01 03:51:15;;;;;;;20.23;6.53;;;;;;;;;;5013600;28;20087;-70
2021/07/01 03:53:40;;;;;;;16.60;6.33;;;;;;;;;;5013967;28;20489;-70
2021/07/01 03:56:05;;;;;;;17.97;5.57;;;;;;;;;;5012530;28;20025;-71
2021/07/01 03:58:31;;;;;;;21.47;6.27;;;;;;;;;;5013523;28;20034;-70
2021/07/01 04:00:56;;;;;;;15.23;6.20;;;;;;;;;;5008210;28;20025;-70
2021/07/01 04:03:21;;;;;;;19.63;6.30;;;;;;;;;;5009999;28;20081;-70
2021/07/01 04:05:47;;;;;;;14.70;5.27;;;;;;;;;;5010061;28;20054;-71
2021/07/01 04:08:12;;;;;;;21.83;7.17;;;;;;;;;;5007719;28;20048;-71
2021/07/01 04:10:37;;;;;;;17.63;6.60;;;;;;;;;;5013229;28;20084;-71
2021/07/01 04:13:03;;;;;;;14.33;6.03;;;;;;;;;;5004941;28;20034;-71
2021/07/01 04:15:28;;;;;;;14.30;5.83;;;;;;;;;;5013213;28;20022;-71
2021/07/01 04:17:53;;;;;;;14.87;5.23;;;;;;;;;;5006122;28;20366;-71
2021/07/01 04:20:19;;;;;;;12.90;4.77;;;;;;;;;;5013600;28;20029;-70
2021/07/01 04:22:44;;;;;;;17.70;5.70;;;;;;;;;;5005662;28;20022;-71
2021/07/01 04:25:10;;;;;;;17.43;5.17;;;;;;;;;;5013051;28;20394;-70
2021/07/01 04:27:35;;;;;;;13.87;5.13;;;;;;;;;;5007504;28;20378;-71
2021/07/01 04:30:01;;;;;;;24.67;5.90;;;;;;;;;;5001560;28;20026;-70
2021/07/01 04:32:26;;;;;;;13.83;5.37;;;;;;;;;;5012819;28;20029;-71
2021/07/01 04:34:51;;;;;;;14.87;5.00;;;;;;;;;;5013315;28;20022;-70
2021/07/01 04:37:17;;;;;;;20.40;5.67;;;;;;;;;;5012923;28;20029;-70
2021/07/01 04:39:42;;;;;;;13.70;4.73;;;;;;;;;;5013047;28;20338;-70
2021/07/01 04:42:08;;;;;;;13.13;4.97;;;;;;;;;;5011894;28;20022;-71
2021/07/01 04:44:33;;;;;;;15.30;5.23;;;;;;;;;;5012578;28;20037;-70
2021/07/01 04:46:58;;;;;;;13.33;4.43;;;;;;;;;;5012933;28;20026;-70
2021/07/01 04:49:24;;;;;;;16.83;4.57;;;;;;;;;;5012387;28;20324;-70
2021/07/01 04:51:49;;;;;;;15.10;5.03;;;;;;;;;;5001962;28;20034;-70
2021/07/01 04:54:14;;;;;;;17.03;5.67;;;;;;;;;;5012964;28;20113;-71
2021/07/01 04:56:43;;;;;;;8.60;4.33;;;;;;;;;;5020876;28;20056;-71
2021/07/01 04:59:09;;;;;;;13.13;3.53;;;;;;;;;;5011565;28;20493;-70
2021/07/01 05:01:35;;;;;;;13.03;4.27;;;;;;;;;;5005493;28;20026;-71
2021/07/01 05:04:00;;;;;;;17.37;4.07;;;;;;;;;;5009973;28;20050;-71
2021/07/01 05:06:25;;;;;;;13.40;4.67;;;;;;;;;;5012760;28;20359;-71
2021/07/01 05:08:51;;;;;;;18.70;4.97;;;;;;;;;;5006305;28;20037;-70
2021/07/01 05:11:16;;;;;;;11.40;4.37;;;;;;;;;;5010476;28;20026;-71
2021/07/01 05:13:41;;;;;;;10.60;4.43;;;;;;;;;;5000155;28;20026;-71
2021/07/01 05:16:07;;;;;;;13.40;4.70;;;;;;;;;;5003468;28;20030;-71
2021/07/01 05:18:32;;;;;;;13.73;4.90;;;;;;;;;;5012710;28;20076;-71
2021/07/01 05:20:57;;;;;;;13.40;3.87;;;;;;;;;;5012945;28;20022;-71
2021/07/01 05:23:23;;;;;;;12.43;4.43;;;;;;;;;;5010778;28;20022;-71
2021/07/01 05:25:48;;;;;;;14.93;4.00;;;;;;;;;;5003360;28;20033;-69
2021/07/01 05:28:13;;;;;;;15.63;4.97;;;;;;;;;;5008778;28;20057;-69
2021/07/01 05:30:39;;;;;;;13.17;4.13;;;;;;;;;;5007298;28;20057;-69
2021/07/01 05:33:04;;;;;;;12.90;4.80;;;;;;;;;;5004964;28;20161;-68
2021/07/01 05:35:30;;;;;;;13.17;3.73;;;;;;;;;;5005356;28;20061;-68
2021/07/01 05:37:55;;;;;;;11.17;4.53;;;;;;;;;;5010981;28;20030;-68
2021/07/01 05:40:21;;;;;;;10.70;3.57;;;;;;;;;;5012848;28;20049;-68
2021/07/01 05:42:47;;;;;;;7.33;2.80;;;;;;;;;;5007151;28;20025;-68
2021/07/01 05:45:12;;;;;;;8.97;3.27;;;;;;;;;;5012094;28;20034;-68
2021/07/01 05:47:41;;;;;;;8.57;3.30;;;;;;;;;;5012481;28;20109;-67
2021/07/01 05:50:08;;;;;;;10.20;3.27;;;;;;;;;;5012995;28;20227;-68
2021/07/01 05:52:35;;;;;;;11.73;3.00;;;;;;;;;;5012545;28;20061;-68
2021/07/01 05:55:01;;;;;;;7.97;3.20;;;;;;;;;;5013236;28;20041;-69
2021/07/01 05:57:29;;;;;;;8.30;2.83;;;;;;;;;;5022283;28;20592;-69
2021/07/01 05:59:55;;;;;;;7.00;2.40;;;;;;;;;;5012443;28;20022;-69
2021/07/01 06:02:21;;;;;;;9.87;3.10;;;;;;;;;;5012299;28;20057;-69
2021/07/01 06:04:46;;;;;;;6.33;2.93;;;;;;;;;;5012569;28;20052;-69
2021/07/01 06:07:14;;;;;;;8.63;3.13;;;;;;;;;;5016152;28;20112;-69
2021/07/01 06:09:39;;;;;;;7.70;2.20;;;;;;;;;;5014792;28;20021;-69
2021/07/01 06:12:05;;;;;;;7.43;2.87;;;;;;;;;;5015964;28;20459;-69
2021/07/01 06:14:30;;;;;;;7.87;2.30;;;;;;;;;;5015264;28;20381;-69
2021/07/01 06:16:58;;;;;;;9.03;2.57;;;;;;;;;;5015822;28;20026;-69
2021/07/01 06:19:23;;;;;;;7.20;2.47;;;;;;;;;;5015657;28;20014;-70
2021/07/01 06:21:49;;;;;;;4.80;2.33;;;;;;;;;;5015948;28;20049;-69
2021/07/01 06:24:18;;;;;;;5.97;2.20;;;;;;;;;;5015185;28;20390;-69
2021/07/01 06:26:45;;;;;;;7.03;2.23;;;;;;;;;;5015488;28;20108;-68
2021/07/01 06:29:11;;;;;;;4.37;1.90;;;;;;;;;;5015362;28;20029;-69
2021/07/01 06:31:37;;;;;;;7.40;2.30;;;;;;;;;;5005167;28;20092;-69
2021/07/01 06:34:02;;;;;;;6.97;2.53;;;;;;;;;;5015376;28;20622;-69
2021/07/01 06:36:28;;;;;;;12.07;2.20;;;;;;;;;;5015416;28;20026;-69
2021/07/01 06:38:57;;;;;;;5.33;2.20;;;;;;;;;;5005326;28;20076;-68
2021/07/01 06:41:24;;;;;;;4.47;1.53;;;;;;;;;;5012890;28;20018;-68
2021/07/01 06:43:50;;;;;;;7.03;2.30;;;;;;;;;;5015599;28;20032;-68
2021/07/01 06:46:17;;;;;;;3.67;1.73;;;;;;;;;;5015125;28;20108;-68
2021/07/01 06:48:45;;;;;;;4.43;1.63;;;;;;;;;;5014940;28;20030;-68
2021/07/01 06:51:11;;;;;;;4.87;1.73;;;;;;;;;;5015792;28;20457;-68
2021/07/01 06:53:39;;;;;;;4.60;2.00;;;;;;;;;;5014266;28;20038;-68
2021/07/01 06:56:04;;;;;;;5.83;2.13;;;;;;;;;;5024142;28;20021;-68
2021/07/01 06:58:30;;;;;;;5.40;2.13;;;;;;;;;;5015328;28;20026;-68
2021/07/01 07:00:56;;;;;;;5.70;2.23;;;;;;;;;;5015592;28;20075;-69
2021/07/01 07:03:22;;;;;;;6.03;2.27;;;;;;;;;;5014955;28;20120;-68
2021/07/01 07:05:48;;;;;;;5.03;1.87;;;;;;;;;;5015209;28;20573;-68
2021/07/01 07:08:14;;;;;;;4.83;2.00;;;;;;;;;;5014941;28;20022;-68
2021/07/01 07:10:42;;;;;;;6.03;1.80;;;;;;;;;;5015245;28;20018;-69
2021/07/01 07:13:07;;;;;;;5.27;2.30;;;;;;;;;;5015007;28;20042;-68
2021/07/01 07:15:33;;;;;;;5.40;2.10;;;;;;;;;;5014757;28;20079;-68
2021/07/01 07:18:05;;;;;;;6.50;1.80;;;;;;;;;;5014565;28;20067;-68
2021/07/01 07:20:31;;;;;;;4.17;1.70;;;;;;;;;;5014894;28;20018;-68
2021/07/01 07:22:58;;;;;;;4.77;2.10;;;;;;;;;;5014271;28;20026;-69
2021/07/01 07:25:24;;;;;;;4.93;2.00;;;;;;;;;;5014856;28;20029;-68
2021/07/01 07:27:53;;;;;;;6.43;2.10;;;;;;;;;;5013901;28;20026;-68
2021/07/01 07:30:18;;;;;;;4.57;2.13;;;;;;;;;;5010877;28;20032;-68
2021/07/01 07:32:45;;;;;;;6.07;2.27;;;;;;;;;;5008072;28;20085;-68
2021/07/01 07:35:11;;;;;;;6.50;1.70;;;;;;;;;;5001711;28;20033;-68
2021/07/01 07:37:36;;;;;;;6.83;1.93;;;;;;;;;;5014175;28;20382;-68
2021/07/01 07:42:32;;;;;;;5.50;2.10;;;;;;;;;;5014454;28;20032;-68
2021/07/01 07:44:58;;;;;;;5.03;2.30;;;;;;;;;;5014561;28;20033;-68
2021/07/01 07:47:24;;;;;;;7.40;1.90;;;;;;;;;;5013718;28;20033;-68
2021/07/01 07:49:49;;;;;;;7.57;2.73;;;;;;;;;;5014249;28;20080;-68
2021/07/01 07:52:15;;;;;;;5.93;2.30;;;;;;;;;;5014332;28;20108;-68
2021/07/01 07:54:51;;;;;;;6.57;2.30;;;;;;;;;;5013995;28;20029;-68
2021/07/01 07:57:17;;;;;;;7.10;2.40;;;;;;;;;;5019881;28;20044;-68
2021/07/01 07:59:46;;;;;;;7.53;2.23;;;;;;;;;;5014289;28;20022;-68
2021/07/01 08:02:42;;;;;;;5.23;2.03;;;;;;;;;;5013881;28;20100;-69
2021/07/01 08:05:07;;;;;;;5.37;2.20;;;;;;;;;;4994358;28;20104;-68
2021/07/01 08:07:35;;;;;;;5.13;2.03;;;;;;;;;;5013611;28;20026;-68
2021/07/01 08:10:02;;;;;;;4.50;2.10;;;;;;;;;;5013890;28;20474;-68
2021/07/01 08:12:28;;;;;;;6.67;2.20;;;;;;;;;;5013510;28;20053;-68
2021/07/01 08:14:53;;;;;;;7.50;2.40;;;;;;;;;;5014034;28;20099;-68
2021/07/01 08:17:19;;;;;;;5.03;2.17;;;;;;;;;;5013266;28;20038;-68
2021/07/01 08:19:45;;;;;;;7.77;2.50;;;;;;;;;;5013212;28;20481;-69
2021/07/01 08:22:10;;;;;;;6.40;2.00;;;;;;;;;;5013597;28;20028;-69
2021/07/01 08:24:36;;;;;;;7.93;2.47;;;;;;;;;;5013676;28;20037;-69
2021/07/01 08:27:01;;;;;;;7.10;2.50;;;;;;;;;;5013073;28;20049;-69
2021/07/01 08:29:27;;;;;;;8.43;3.33;;;;;;;;;;5013228;28;20030;-69
2021/07/01 08:31:52;;;;;;;8.93;2.80;;;;;;;;;;5003075;28;20046;-69
2021/07/01 08:34:19;;;;;;;6.03;2.50;;;;;;;;;;5013625;28;20028;-69
2021/07/01 08:36:46;;;;;;;5.90;2.47;;;;;;;;;;5013995;28;20110;-68
2021/07/01 08:39:12;;;;;;;5.77;2.30;;;;;;;;;;5013505;28;20036;-68
2021/07/01 08:41:41;;;;;;;8.90;2.60;;;;;;;;;;5013796;28;20029;-68
2021/07/01 08:44:06;;;;;;;6.00;2.20;;;;;;;;;;5013648;28;20030;-69
2021/07/01 08:46:46;;;;;;;5.07;2.07;;;;;;;;;;5013678;28;20164;-71
2021/07/01 08:49:11;;;;;;;7.03;2.40;;;;;;;;;;5011078;28;20025;-71
2021/07/01 08:51:40;;;;;;;5.40;2.20;;;;;;;;;;5012950;28;20049;-71
2021/07/01 08:54:25;;;;;;;6.60;2.30;;;;;;;;;;5013362;28;20112;-71
2021/07/01 08:56:52;;;;;;;11.87;2.57;;;;;;;;;;5022441;28;20026;-71
2021/07/01 08:59:19;;;;;;;4.53;1.90;;;;;;;;;;5013019;28;20021;-71
2021/07/01 09:01:47;;;;;;;5.20;1.93;;;;;;;;;;5013037;28;20052;-71
2021/07/01 09:04:13;;;;;;;6.23;2.30;;;;;;;;;;5013732;28;20418;-71
2021/07/01 09:06:39;;;;;;;7.20;2.30;;;;;;;;;;5014051;28;20034;-72
2021/07/01 09:09:11;;;;;;;6.77;2.70;;;;;;;;;;5013719;28;20060;-72
2021/07/01 09:11:37;;;;;;;5.88;2.03;;;;;;;;;;5011682;28;20022;-71
2021/07/01 09:14:05;;;;;;;7.17;2.80;;;;;;;;;;5014357;28;20120;-68
2021/07/01 09:16:30;;;;;;;8.80;2.50;;;;;;;;;;5013009;28;20045;-67
2021/07/01 09:18:56;;;;;;;9.40;3.20;;;;;;;;;;5012712;28;20053;-67
2021/07/01 09:21:23;;;;;;;10.50;3.10;;;;;;;;;;5012497;28;20029;-67
2021/07/01 09:23:49;;;;;;;8.07;3.00;;;;;;;;;;5012352;28;20107;-67
2021/07/01 09:26:19;;;;;;;10.37;3.93;;;;;;;;;;5012846;28;20029;-67
2021/07/01 09:28:45;;;;;;;9.13;3.23;;;;;;;;;;5012603;28;20398;-67
2021/07/01 09:31:11;;;;;;;9.00;3.57;;;;;;;;;;5001674;28;20058;-67
2021/07/01 09:33:37;;;;;;;9.37;3.80;;;;;;;;;;5011587;28;20056;-68
2021/07/01 09:36:02;;;;;;;11.17;4.00;;;;;;;;;;5013399;28;20081;-67
2021/07/01 09:38:31;;;;;;;11.07;3.77;;;;;;;;;;5012736;28;20026;-68
2021/07/01 09:40:56;;;;;;;14.20;3.90;;;;;;;;;;5016516;28;20056;-67
2021/07/01 09:43:22;;;;;;;9.63;4.03;;;;;;;;;;5016798;28;20049;-67
2021/07/01 09:45:49;;;;;;;11.77;4.30;;;;;;;;;;5016774;28;20018;-68
2021/07/01 09:48:17;;;;;;;13.73;3.83;;;;;;;;;;5016258;28;20026;-68
2021/07/01 09:50:49;;;;;;;13.57;4.03;;;;;;;;;;5016405;28;20021;-68
2021/07/01 09:53:27;;;;;;;8.40;3.30;;;;;;;;;;5018308;28;20021;-67
2021/07/01 09:55:53;;;;;;;8.37;3.50;;;;;;;;;;5020127;28;20026;-68
2021/07/01 09:58:20;;;;;;;7.87;3.30;;;;;;;;;;5016332;28;20135;-68
2021/07/01 10:00:52;;;;;;;9.77;3.27;;;;;;;;;;5016905;28;20017;-68
2021/07/01 10:03:18;;;;;;;8.57;3.17;;;;;;;;;;5015524;28;20056;-67
2021/07/01 10:05:43;;;;;;;8.27;3.00;;;;;;;;;;5016332;28;20045;-67
2021/07/01 10:08:08;;;;;;;7.67;3.00;;;;;;;;;;5015924;28;20030;-67
2021/07/01 10:10:44;;;;;;;9.03;3.30;;;;;;;;;;5016025;28;20026;-67
2021/07/01 10:13:11;;;;;;;10.30;3.67;;;;;;;;;;5015400;28;20037;-68
2021/07/01 10:15:37;;;;;;;9.87;3.30;;;;;;;;;;5015426;28;20189;-68
2021/07/01 10:18:12;;;;;;;9.40;3.23;;;;;;;;;;5015018;28;20161;-67
2021/07/01 10:20:38;;;;;;;8.53;3.30;;;;;;;;;;5015996;28;20022;-67
2021/07/01 10:23:17;;;;;;;10.17;3.10;;;;;;;;;;5014975;28;20014;-67
2021/07/01 10:25:43;;;;;;;7.67;2.97;;;;;;;;;;5015839;28;20492;-68
2021/07/01 10:28:14;;;;;;;8.83;3.70;;;;;;;;;;5015389;28;20119;-68
2021/07/01 10:30:42;;;;;;;10.18;3.63;;;;;;;;;;5009198;28;20031;-68
2021/07/01 10:33:20;;;;;;;8.40;4.20;;;;;;;;;;5010675;28;20052;-68
2021/07/01 10:35:46;;;;;;;8.37;3.73;;;;;;;;;;5015610;28;20054;-68
2021/07/01 10:38:12;;;;;;;11.77;3.97;;;;;;;;;;5015409;28;20472;-68
2021/07/01 10:40:39;;;;;;;9.70;4.03;;;;;;;;;;5015695;28;20018;-68
2021/07/01 10:43:05;;;;;;;8.73;4.00;;;;;;;;;;5014547;28;20022;-68
2021/07/01 10:45:31;;;;;;;7.80;3.50;;;;;;;;;;5015256;28;20025;-67
2021/07/01 10:48:13;;;;;;;9.83;3.63;;;;;;;;;;5014957;28;20048;-67
2021/07/01 10:50:38;;;;;;;10.43;3.58;;;;;;;;;;5014686;28;20052;-68
2021/07/01 10:53:23;;;;;;;6.80;3.73;;;;;;;;;;5014593;28;20045;-67
2021/07/01 10:55:48;;;;;;;6.83;3.40;;;;;;;;;;5022396;28;20030;-67
2021/07/01 10:58:16;;;;;;;11.83;4.20;;;;;;;;;;5015016;28;20508;-67
2021/07/01 11:00:42;;;;;;;10.47;3.80;;;;;;;;;;5015005;28;20026;-67
2021/07/01 11:03:11;;;;;;;9.40;4.10;;;;;;;;;;5014627;28;20120;-67
2021/07/01 11:05:37;;;;;;;7.57;4.17;;;;;;;;;;5014857;28;20040;-68
2021/07/01 11:08:03;;;;;;;10.70;4.03;;;;;;;;;;5014001;28;20117;-67
2021/07/01 11:10:35;;;;;;;10.20;4.17;;;;;;;;;;5014986;28;20029;-67
2021/07/01 11:13:10;;;;;;;7.33;3.37;;;;;;;;;;5014849;28;20674;-67
2021/07/01 11:15:54;;;;;;;9.33;4.50;;;;;;;;;;5014424;28;20026;-67
2021/07/01 11:18:31;;;;;;;8.17;4.07;;;;;;;;;;5014984;28;20030;-68
2021/07/01 11:21:07;;;;;;;8.63;4.33;;;;;;;;;;5014585;28;20022;-67
2021/07/01 11:23:32;;;;;;;8.20;4.53;;;;;;;;;;5014497;28;20049;-67
2021/07/01 11:25:57;;;;;;;7.73;4.17;;;;;;;;;;5014291;28;20026;-68
2021/07/01 11:28:32;;;;;;;8.93;4.55;;;;;;;;;;5014638;28;20022;-67
2021/07/01 11:31:02;;;;;;;8.13;4.20;;;;;;;;;;5014903;28;20044;-68
2021/07/01 11:33:28;;;;;;;9.77;4.40;;;;;;;;;;5014199;28;20104;-68
2021/07/01 11:36:10;;;;;;;7.23;4.13;;;;;;;;;;5014357;28;20402;-68
2021/07/01 11:38:35;;;;;;;8.80;5.03;;;;;;;;;;5014458;28;20029;-68
2021/07/01 11:41:03;;;;;;;8.03;4.30;;;;;;;;;;5014607;28;20025;-68
2021/07/01 11:43:29;;;;;;;8.30;4.47;;;;;;;;;;5014250;28;20029;-69
2021/07/01 11:45:55;;;;;;;10.38;5.03;;;;;;;;;;5013640;28;20573;-68
2021/07/01 11:48:22;;;;;;;10.07;4.93;;;;;;;;;;5014017;28;20108;-68
2021/07/01 11:50:49;;;;;;;10.98;5.15;;;;;;;;;;5013885;28;20022;-69
2021/07/01 11:53:14;;;;;;;9.90;4.97;;;;;;;;;;5013822;28;20045;-69
2021/07/01 11:55:40;;;;;;;11.20;4.82;;;;;;;;;;5019377;28;20045;-68
2021/07/01 11:58:05;;;;;;;8.50;4.57;;;;;;;;;;5013503;28;20025;-69
2021/07/01 12:00:31;;;;;;;9.60;5.07;;;;;;;;;;5014337;28;20037;-66
2021/07/01 12:02:58;;;;;;;8.13;4.05;;;;;;;;;;5013488;28;20482;-66
2021/07/01 12:05:23;;;;;;;7.97;4.47;;;;;;;;;;5013752;28;20033;-67
2021/07/01 12:07:48;;;;;;;9.00;5.13;;;;;;;;;;5001251;28;20026;-66
2021/07/01 12:10:20;;;;;;;8.65;4.72;;;;;;;;;;5013943;28;20022;-66
2021/07/01 12:12:45;;;;;;;8.70;4.70;;;;;;;;;;5014228;28;20030;-72
2021/07/01 12:15:15;;;;;;;9.43;4.95;;;;;;;;;;5015083;28;20079;-69
2021/07/01 12:18:08;;;;;;;13.07;5.55;;;;;;;;;;5012250;28;20025;-69
2021/07/01 12:20:56;;;;;;;11.30;5.60;;;;;;;;;;5010516;28;20048;-69
2021/07/01 12:23:22;;;;;;;10.30;5.53;;;;;;;;;;5013685;28;20022;-69
2021/07/01 12:25:59;;;;;;;13.43;6.30;;;;;;;;;;5013825;28;20026;-69
2021/07/01 12:28:26;;;;;;;10.63;5.85;;;;;;;;;;5013541;28;20030;-70
2021/07/01 12:30:56;;;;;;;11.40;6.25;;;;;;;;;;5005077;28;20038;-69
2021/07/01 12:33:57;;;;;;;10.98;6.03;;;;;;;;;;5011643;28;20099;-69
2021/07/01 12:36:32;;;;;;;16.35;6.32;;;;;;;;;;4939622;29;20031;-69
2021/07/01 12:39:17;;;;;;;13.40;7.30;;;;;;;;;;4935579;29;20047;-69
2021/07/01 12:41:43;;;;;;;41.28;7.90;;;;;;;;;;4951865;29;20078;-69
2021/07/01 12:44:31;;;;;;;18.35;7.90;;;;;;;;;;4933908;29;20574;-68
2021/07/01 12:46:58;;;;;;;18.63;6.88;;;;;;;;;;4932382;29;20031;-67
2021/07/01 12:49:43;;;;;;;11.13;4.07;;;;;;;;;;4947507;29;20031;-67
2021/07/01 12:52:13;;;;;;;8.13;3.60;;;;;;;;;;4949171;29;20074;-68
2021/07/01 12:54:58;;;;;;;9.50;3.83;;;;;;;;;;4950311;29;20063;-68
2021/07/01 12:57:24;;;;;;;15.03;4.20;;;;;;;;;;4935483;29;20036;-68
2021/07/01 12:59:50;;;;;;;9.97;3.80;;;;;;;;;;4952187;29;20019;-68
2021/07/01 13:02:18;;;;;;;6.97;3.87;;;;;;;;;;4948550;29;20127;-68
2021/07/01 13:04:44;;;;;;;7.13;4.07;;;;;;;;;;4951962;29;20103;-69
2021/07/01 13:07:10;;;;;;;7.65;3.92;;;;;;;;;;4949722;29;20138;-69
2021/07/01 13:09:37;;;;;;;9.13;4.30;;;;;;;;;;4957034;28;20042;-69
2021/07/01 13:12:03;;;;;;;8.40;3.93;;;;;;;;;;5012381;28;20355;-69
2021/07/01 13:14:29;;;;;;;7.00;4.00;;;;;;;;;;5012391;28;20580;-69
2021/07/01 13:17:14;;;;;;;9.03;4.80;;;;;;;;;;5012153;28;20374;-69
2021/07/01 13:19:44;;;;;;;8.43;4.87;;;;;;;;;;5011980;28;20026;-69
2021/07/01 13:22:14;;;;;;;7.83;4.20;;;;;;;;;;5012528;28;20034;-69
2021/07/01 13:24:56;;;;;;;8.50;4.27;;;;;;;;;;5012655;28;20116;-69
2021/07/01 13:27:39;;;;;;;8.82;4.50;;;;;;;;;;5012783;28;20028;-69
2021/07/01 13:30:16;;;;;;;7.50;4.03;;;;;;;;;;5000604;28;20026;-69
2021/07/01 13:32:42;;;;;;;10.05;4.55;;;;;;;;;;5005745;28;20547;-69
2021/07/01 13:35:08;;;;;;;8.70;4.55;;;;;;;;;;5012737;28;20370;-70
2021/07/01 13:37:34;;;;;;;9.30;4.90;;;;;;;;;;5012482;28;20041;-69
2021/07/01 13:40:20;;;;;;;7.85;4.38;;;;;;;;;;5012484;28;20028;-69
2021/07/01 13:42:46;;;;;;;8.35;4.65;;;;;;;;;;5011838;28;20406;-69
2021/07/01 13:45:19;;;;;;;7.70;4.72;;;;;;;;;;5013017;28;20025;-70
2021/07/01 13:48:04;;;;;;;11.02;5.07;;;;;;;;;;5012575;28;20030;-69
2021/07/01 13:50:55;;;;;;;9.70;4.55;;;;;;;;;;5011953;28;20034;-69
2021/07/01 13:53:25;;;;;;;10.55;5.35;;;;;;;;;;5009248;28;20034;-69
2021/07/01 13:56:10;;;;;;;10.25;4.88;;;;;;;;;;5021312;28;20025;-70
2021/07/01 13:58:42;;;;;;;8.60;4.70;;;;;;;;;;5007114;28;20453;-69
2021/07/01 14:01:08;;;;;;;9.23;4.88;;;;;;;;;;5012642;28;20489;-69
2021/07/01 14:03:38;;;;;;;9.45;4.60;;;;;;;;;;5012222;28;20046;-69
2021/07/01 14:06:04;;;;;;;9.57;4.93;;;;;;;;;;5013303;28;20076;-69
2021/07/01 14:08:30;;;;;;;8.82;4.80;;;;;;;;;;5012269;28;20156;-70
2021/07/01 14:11:03;;;;;;;8.90;4.47;;;;;;;;;;5012538;28;20018;-70
2021/07/01 14:13:30;;;;;;;7.75;4.05;;;;;;;;;;5012420;28;20029;-71
2021/07/01 14:15:55;;;;;;;7.60;4.00;;;;;;;;;;5012571;28;20153;-71
2021/07/01 14:18:23;;;;;;;7.43;4.10;;;;;;;;;;5012622;28;20105;-71
2021/07/01 14:20:48;;;;;;;10.02;4.53;;;;;;;;;;5006400;28;20451;-71
2021/07/01 14:23:17;;;;;;;9.90;4.88;;;;;;;;;;5009374;28;20029;-70
2021/07/01 14:25:43;;;;;;;7.60;4.43;;;;;;;;;;5013015;28;20022;-70
2021/07/01 14:28:10;;;;;;;9.93;4.95;;;;;;;;;;5015406;28;20072;-70
2021/07/01 14:30:43;;;;;;;9.35;4.68;;;;;;;;;;5015425;28;20022;-70
2021/07/01 14:33:47;;;;;;;8.73;5.03;;;;;;;;;;5015428;28;20030;-70
2021/07/01 14:36:31;;;;;;;13.23;5.82;;;;;;;;;;4950762;29;20632;-69
2021/07/01 14:39:00;;;;;;;11.60;5.20;;;;;;;;;;4936484;29;20075;-70
2021/07/01 14:41:30;;;;;;;11.02;5.40;;;;;;;;;;4935595;29;20172;-70